Terminal Aerodrome Forecast
Issued by NWS

Home | Current Version | Previous Version | Text Only | Print | Product List | Glossary On
Versions: 1 2 3 4 5 6 7 8 9 10 11 12 13 14 15 16
000
FTUS46 KMFR 220006 AAA
TAFLMT
TAF AMD
KLMT 220006Z 2200/2224 28008KT P6SM SCT025 BKN035 BKN050
     FM220200 29009KT P6SM FEW035 SCT090 BKN180
     FM221300 25005KT 6SM -SN BKN015 OVC025
     FM221500 26006KT 2SM -SHSN BR BKN007 BKN010 OVC015
     FM221800 30010G17KT 5SM -SHSN BR SCT020 BKN035 BKN060=

USA.gov is the U.S. government's official web portal to all federal, state and local government web resources and services.